Time;durP1;ratioP1;P1;durP2;ratioP2;P2;SDS_P1;SDS_P2;PMS_P1;PMS_P2;Temp;Humidity;BMP_temperature;BMP_pressure;BME280_temperature;BME280_humidity;BME280_pressure;Samples;Min_cycle;Max_cycle;Signal;HPM_P1;HPM_P2
2021/11/06 00:01:18;;;;;;;5.70;2.10;;;20.10;47.20;;;;;;4919034;29;20024;-66
2021/11/06 00:03:44;;;;;;;6.00;2.25;;;20.10;47.20;;;;;;4918942;29;20083;-66
2021/11/06 00:06:09;;;;;;;4.93;2.08;;;20.10;47.20;;;;;;4918811;29;20103;-66
2021/11/06 00:08:35;;;;;;;5.18;1.85;;;20.10;47.10;;;;;;4919121;29;20424;-66
2021/11/06 00:11:00;;;;;;;5.78;2.53;;;20.10;47.20;;;;;;4918809;29;20552;-66
2021/11/06 00:13:27;;;;;;;6.50;2.80;;;20.00;47.10;;;;;;4917511;29;20392;-66
2021/11/06 00:15:52;;;;;;;5.25;2.20;;;20.10;47.10;;;;;;4918729;29;20048;-66
2021/11/06 00:18:18;;;;;;;4.07;1.83;;;20.10;47.10;;;;;;4917626;29;20026;-66
2021/11/06 00:20:43;;;;;;;5.05;2.10;;;20.00;47.20;;;;;;4918818;29;20024;-66
2021/11/06 00:23:09;;;;;;;5.65;2.17;;;20.10;47.00;;;;;;4918597;29;20392;-66
2021/11/06 00:25:34;;;;;;;4.93;2.15;;;20.10;47.10;;;;;;4918518;29;20103;-66
2021/11/06 00:28:00;;;;;;;5.60;2.22;;;20.10;47.10;;;;;;4918771;29;20036;-66
2021/11/06 00:30:26;;;;;;;7.63;2.40;;;20.10;47.10;;;;;;4917052;29;20488;-66
2021/11/06 00:32:51;;;;;;;5.63;2.30;;;20.00;47.10;;;;;;4918471;29;20032;-66
2021/11/06 00:35:17;;;;;;;5.25;2.33;;;20.00;47.10;;;;;;4918560;29;20036;-66
2021/11/06 00:37:45;;;;;;;5.30;2.28;;;20.00;47.10;;;;;;4918314;29;20040;-66
2021/11/06 00:40:13;;;;;;;6.80;2.40;;;20.00;47.00;;;;;;4918632;29;20032;-66
2021/11/06 00:42:39;;;;;;;5.93;2.28;;;20.00;47.00;;;;;;4918284;29;20047;-66
2021/11/06 00:45:07;;;;;;;5.07;2.15;;;20.00;47.00;;;;;;4918272;29;20480;-66
2021/11/06 00:47:32;;;;;;;4.55;1.88;;;20.00;47.00;;;;;;4916945;29;20024;-66
2021/11/06 00:49:58;;;;;;;6.80;2.17;;;20.00;47.00;;;;;;4916296;29;20495;-66
2021/11/06 00:52:23;;;;;;;5.15;1.95;;;20.00;47.00;;;;;;4918065;29;20102;-66
2021/11/06 00:54:49;;;;;;;5.85;2.30;;;20.00;47.00;;;;;;4917998;29;20032;-66
2021/11/06 00:57:15;;;;;;;6.07;2.33;;;20.00;47.00;;;;;;4917995;29;20032;-66
2021/11/06 00:59:40;;;;;;;5.10;2.03;;;20.00;47.00;;;;;;4917946;29;20494;-66
2021/11/06 01:02:06;;;;;;;5.28;2.00;;;20.00;47.00;;;;;;4917921;29;20032;-66
2021/11/06 01:04:31;;;;;;;5.53;2.35;;;20.00;47.00;;;;;;4917799;29;20160;-66
2021/11/06 01:06:57;;;;;;;5.57;2.00;;;20.00;47.00;;;;;;4916577;29;20025;-66
2021/11/06 01:09:22;;;;;;;4.82;1.77;;;20.00;47.00;;;;;;4917920;29;20024;-66
2021/11/06 01:11:48;;;;;;;6.43;2.13;;;20.00;46.90;;;;;;4917669;29;20084;-66
2021/11/06 01:14:14;;;;;;;6.68;2.10;;;20.00;46.90;;;;;;4917643;29;20043;-66
2021/11/06 01:16:39;;;;;;;4.90;1.88;;;20.00;47.00;;;;;;4917642;29;20036;-66
2021/11/06 01:19:05;;;;;;;4.93;2.08;;;20.00;46.90;;;;;;4917534;29;20039;-66
2021/11/06 01:21:30;;;;;;;5.57;2.30;;;20.00;46.90;;;;;;4917643;29;20032;-66
2021/11/06 01:23:56;;;;;;;7.93;2.55;;;20.00;46.90;;;;;;4917572;29;20028;-66
2021/11/06 01:26:22;;;;;;;5.22;2.17;;;20.00;46.80;;;;;;4917523;29;20039;-66
2021/11/06 01:28:48;;;;;;;4.63;1.95;;;20.00;46.90;;;;;;4917561;29;20032;-66
2021/11/06 01:31:13;;;;;;;4.85;2.20;;;20.00;46.90;;;;;;4917279;29;20044;-66
2021/11/06 01:33:39;;;;;;;4.90;2.08;;;20.00;46.90;;;;;;4915996;29;20030;-66
2021/11/06 01:36:04;;;;;;;4.65;1.90;;;20.00;46.90;;;;;;4917329;29;20033;-66
2021/11/06 01:38:30;;;;;;;4.85;2.10;;;20.00;46.90;;;;;;4917402;29;20020;-65
2021/11/06 01:40:56;;;;;;;5.53;2.38;;;20.00;46.80;;;;;;4916038;29;20028;-66
2021/11/06 01:43:22;;;;;;;5.88;2.00;;;20.00;46.90;;;;;;4917160;29;20031;-65
2021/11/06 01:46:00;;;;;;;4.97;2.33;;;20.00;46.90;;;;;;4917219;29;20032;-66
2021/11/06 01:48:28;;;;;;;4.78;2.00;;;20.00;46.90;;;;;;4917111;29;20091;-66
2021/11/06 01:50:54;;;;;;;5.15;2.20;;;20.00;46.80;;;;;;4917304;29;20028;-66
2021/11/06 01:53:19;;;;;;;6.13;2.10;;;20.00;46.80;;;;;;4917245;29;20152;-66
2021/11/06 01:55:47;;;;;;;5.35;1.98;;;20.00;46.80;;;;;;4916889;29;20420;-66
2021/11/06 01:58:12;;;;;;;5.80;2.10;;;20.00;46.80;;;;;;4916968;29;20556;-66
2021/11/06 02:00:38;;;;;;;4.20;1.70;;;20.00;46.80;;;;;;4914816;29;20126;-66
2021/11/06 02:03:04;;;;;;;4.53;2.00;;;20.00;46.80;;;;;;4916878;29;20035;-66
2021/11/06 02:05:30;;;;;;;5.68;2.30;;;20.00;46.80;;;;;;4916780;29;20036;-65
2021/11/06 02:07:55;;;;;;;5.20;1.98;;;19.90;46.70;;;;;;4916793;29;20024;-65
2021/11/06 02:10:21;;;;;;;5.20;2.17;;;19.90;46.80;;;;;;4916837;29;20028;-66
2021/11/06 02:12:49;;;;;;;5.65;2.25;;;19.90;46.70;;;;;;4916728;29;20396;-65
2021/11/06 02:15:16;;;;;;;5.00;1.73;;;20.00;46.80;;;;;;4916630;29;20036;-66
2021/11/06 02:17:43;;;;;;;4.50;2.00;;;19.90;46.70;;;;;;4915378;29;20336;-65
2021/11/06 02:20:10;;;;;;;5.88;1.67;;;20.00;46.70;;;;;;4916557;29;20024;-66
2021/11/06 02:22:35;;;;;;;5.38;1.73;;;20.00;46.70;;;;;;4915376;29;20475;-65
2021/11/06 02:25:01;;;;;;;4.95;2.05;;;19.90;46.70;;;;;;4916523;29;20176;-66
2021/11/06 02:27:27;;;;;;;5.82;2.50;;;20.00;46.70;;;;;;4916703;29;20056;-65
2021/11/06 02:29:53;;;;;;;6.30;1.98;;;20.00;46.70;;;;;;4916626;29;20044;-66
2021/11/06 02:32:19;;;;;;;6.00;2.03;;;19.90;46.70;;;;;;4916670;29;20480;-66
2021/11/06 02:34:44;;;;;;;4.50;1.70;;;19.90;46.60;;;;;;4916527;29;20036;-65
2021/11/06 02:37:10;;;;;;;6.13;2.10;;;19.90;46.70;;;;;;4916621;29;20071;-65
2021/11/06 02:39:35;;;;;;;4.63;2.00;;;19.90;46.70;;;;;;4915407;29;20111;-66
2021/11/06 02:42:04;;;;;;;7.07;2.38;;;19.90;46.70;;;;;;4916580;29;20369;-65
2021/11/06 02:44:29;;;;;;;5.72;1.90;;;19.90;46.60;;;;;;4916798;29;20039;-66
2021/11/06 02:46:55;;;;;;;4.93;2.20;;;19.90;46.60;;;;;;4916749;29;20028;-66
2021/11/06 02:49:21;;;;;;;5.18;1.80;;;19.90;46.70;;;;;;4916513;29;20392;-66
2021/11/06 02:51:46;;;;;;;5.40;2.03;;;19.90;46.60;;;;;;4916513;29;20021;-66
2021/11/06 02:54:12;;;;;;;5.65;2.25;;;19.90;46.60;;;;;;4916365;29;20396;-66
2021/11/06 02:56:37;;;;;;;6.25;2.22;;;19.90;46.70;;;;;;4916703;29;20028;-66
2021/11/06 02:59:03;;;;;;;6.28;2.00;;;19.90;46.70;;;;;;4916594;29;20027;-66
2021/11/06 03:01:29;;;;;;;7.22;1.90;;;19.90;46.60;;;;;;4916726;29;20050;-66
2021/11/06 03:03:55;;;;;;;4.78;2.10;;;19.90;46.60;;;;;;4916537;29;20020;-66
2021/11/06 03:06:20;;;;;;;5.50;1.92;;;19.90;46.60;;;;;;4916279;29;20032;-65
2021/11/06 03:08:46;;;;;;;4.30;1.60;;;19.90;46.60;;;;;;4916289;29;20062;-66
2021/11/06 03:11:11;;;;;;;5.50;2.22;;;19.90;46.60;;;;;;4916263;29;20068;-65
2021/11/06 03:13:38;;;;;;;5.03;1.88;;;19.90;46.60;;;;;;4919444;29;20036;-68
2021/11/06 03:16:07;;;;;;;5.55;2.10;;;19.90;46.60;;;;;;4920062;29;20036;-65
2021/11/06 03:18:33;;;;;;;5.88;2.30;;;19.90;46.60;;;;;;4920021;29;20102;-66
2021/11/06 03:20:58;;;;;;;6.07;2.10;;;19.90;46.60;;;;;;4919835;29;20032;-66
2021/11/06 03:23:27;;;;;;;5.93;2.22;;;19.90;46.60;;;;;;4919822;29;20021;-66
2021/11/06 03:25:54;;;;;;;5.88;2.05;;;19.90;46.60;;;;;;4919733;29;20020;-65
2021/11/06 03:28:19;;;;;;;4.97;2.17;;;19.90;46.60;;;;;;4919846;29;20028;-66
2021/11/06 03:30:45;;;;;;;4.80;2.03;;;19.90;46.60;;;;;;4919457;29;20104;-65
2021/11/06 03:33:10;;;;;;;4.40;1.63;;;19.90;46.50;;;;;;4919590;29;20115;-65
2021/11/06 03:35:36;;;;;;;5.47;2.38;;;19.90;46.60;;;;;;4919456;29;20481;-66
2021/11/06 03:38:02;;;;;;;6.22;2.13;;;19.90;46.50;;;;;;4919431;29;20052;-65
2021/11/06 03:40:28;;;;;;;5.82;2.00;;;19.90;46.50;;;;;;4919406;29;20076;-66
2021/11/06 03:42:54;;;;;;;4.72;1.85;;;19.90;46.50;;;;;;4919276;29;20031;-65
2021/11/06 03:45:20;;;;;;;6.10;1.90;;;19.80;46.50;;;;;;4919238;29;20032;-65
2021/11/06 03:47:45;;;;;;;4.07;1.58;;;19.90;46.50;;;;;;4919297;29;20047;-65
2021/11/06 03:50:11;;;;;;;4.68;1.60;;;19.90;46.50;;;;;;4919181;29;20028;-65
2021/11/06 03:52:37;;;;;;;5.57;2.17;;;19.90;46.50;;;;;;4919161;29;20028;-65
2021/11/06 03:55:05;;;;;;;5.10;2.00;;;19.80;46.50;;;;;;4919030;29;20075;-65
2021/11/06 03:57:30;;;;;;;4.30;1.80;;;19.90;46.50;;;;;;4919029;29;20044;-65
2021/11/06 03:59:56;;;;;;;5.00;1.83;;;19.80;46.50;;;;;;4919272;29;20028;-65
2021/11/06 04:02:22;;;;;;;5.35;1.90;;;19.80;46.50;;;;;;4918936;29;20540;-66
2021/11/06 04:04:48;;;;;;;4.63;1.90;;;19.90;46.40;;;;;;4918927;29;20032;-65
2021/11/06 04:07:13;;;;;;;4.85;2.10;;;19.80;46.40;;;;;;4918831;29;20116;-65
2021/11/06 04:09:39;;;;;;;5.20;2.10;;;19.80;46.50;;;;;;4918855;29;20039;-66
2021/11/06 04:12:04;;;;;;;6.00;2.20;;;19.80;46.50;;;;;;4918758;29;20080;-66
2021/11/06 04:14:30;;;;;;;4.47;1.83;;;19.80;46.40;;;;;;4918685;29;20042;-66
2021/11/06 04:16:56;;;;;;;4.80;2.00;;;19.90;46.50;;;;;;4918890;29;20032;-66
2021/11/06 04:19:22;;;;;;;5.03;1.85;;;19.90;46.50;;;;;;4918667;29;20091;-66
2021/11/06 04:21:48;;;;;;;4.18;1.75;;;19.80;46.50;;;;;;4918606;29;20024;-66
2021/11/06 04:24:14;;;;;;;5.93;2.28;;;19.90;46.40;;;;;;4917787;29;20028;-66
2021/11/06 04:26:39;;;;;;;5.75;2.00;;;19.90;46.40;;;;;;4918560;29;20024;-66
2021/11/06 04:29:05;;;;;;;5.72;2.10;;;19.90;46.40;;;;;;4918578;29;20020;-66
2021/11/06 04:31:30;;;;;;;6.38;2.50;;;19.80;46.40;;;;;;4918342;29;20052;-65
2021/11/06 04:33:56;;;;;;;5.07;2.22;;;19.80;46.40;;;;;;4918496;29;20032;-66
2021/11/06 04:36:22;;;;;;;3.85;1.70;;;19.90;46.40;;;;;;4918406;29;20028;-66
2021/11/06 04:38:47;;;;;;;4.68;1.85;;;19.80;46.40;;;;;;4918384;29;20024;-66
2021/11/06 04:41:13;;;;;;;5.53;2.00;;;19.80;46.40;;;;;;4918232;29;20024;-65
2021/11/06 04:43:39;;;;;;;7.57;2.40;;;19.80;46.40;;;;;;4918280;29;20107;-65
2021/11/06 04:46:05;;;;;;;5.28;1.90;;;19.80;46.40;;;;;;4918229;29;20028;-65
2021/11/06 04:48:32;;;;;;;5.00;2.17;;;19.80;46.40;;;;;;4918250;29;20096;-66
2021/11/06 04:50:57;;;;;;;5.15;1.90;;;19.80;46.40;;;;;;4918400;29;20030;-66
2021/11/06 04:53:23;;;;;;;4.13;1.50;;;19.80;46.40;;;;;;4918096;29;20020;-65
2021/11/06 04:55:48;;;;;;;6.28;2.00;;;19.80;46.30;;;;;;4917949;29;20502;-66
2021/11/06 04:58:14;;;;;;;4.25;1.55;;;19.80;46.40;;;;;;4917988;29;20380;-65
2021/11/06 05:00:40;;;;;;;5.35;1.88;;;19.80;46.40;;;;;;4918214;29;20070;-66
2021/11/06 05:03:05;;;;;;;5.18;2.05;;;19.80;46.30;;;;;;4917853;29;20028;-66
2021/11/06 05:05:31;;;;;;;6.43;2.25;;;19.90;46.30;;;;;;4918095;29;20111;-65
2021/11/06 05:07:56;;;;;;;5.57;1.92;;;19.80;46.30;;;;;;4917805;29;20067;-66
2021/11/06 05:10:23;;;;;;;5.10;1.85;;;19.80;46.40;;;;;;4917651;29;20031;-66
2021/11/06 05:12:49;;;;;;;5.18;1.83;;;19.80;46.30;;;;;;4917795;29;20030;-66
2021/11/06 05:15:16;;;;;;;8.13;2.10;;;19.90;46.30;;;;;;4917560;29;20043;-65
2021/11/06 05:17:42;;;;;;;4.32;1.67;;;19.90;46.40;;;;;;4917741;29;20031;-66
2021/11/06 05:20:08;;;;;;;4.28;1.67;;;19.80;46.30;;;;;;4917709;29;20024;-66
2021/11/06 05:22:34;;;;;;;5.95;1.92;;;19.80;46.30;;;;;;4917569;29;20384;-65
2021/11/06 05:25:02;;;;;;;5.97;1.88;;;19.90;46.30;;;;;;4917601;29;20020;-65
2021/11/06 05:27:28;;;;;;;6.22;1.98;;;19.90;46.30;;;;;;4917603;29;20099;-66
2021/11/06 05:29:54;;;;;;;6.88;2.05;;;19.90;46.20;;;;;;4917315;29;20492;-66
2021/11/06 05:32:20;;;;;;;4.95;1.80;;;20.00;46.20;;;;;;4917504;29;20111;-65
2021/11/06 05:34:45;;;;;;;5.38;1.80;;;20.00;46.20;;;;;;4917150;29;20040;-66
2021/11/06 05:37:11;;;;;;;4.03;1.60;;;20.00;46.10;;;;;;4917356;29;20032;-66
2021/11/06 05:39:37;;;;;;;4.45;1.45;;;20.00;46.10;;;;;;4917278;29;20054;-66
2021/11/06 05:42:02;;;;;;;5.75;1.70;;;20.00;46.10;;;;;;4917485;29;20032;-66
2021/11/06 05:44:28;;;;;;;5.53;1.98;;;20.00;46.00;;;;;;4917596;29;20612;-66
2021/11/06 05:46:53;;;;;;;3.20;1.25;;;20.10;46.10;;;;;;4917295;29;20460;-66
2021/11/06 05:49:19;;;;;;;4.25;1.67;;;20.00;46.00;;;;;;4917273;29;20044;-66
2021/11/06 05:51:45;;;;;;;5.70;1.88;;;20.10;46.00;;;;;;4917108;29;20115;-66
2021/11/06 05:54:13;;;;;;;4.80;1.65;;;20.10;45.90;;;;;;4917225;29;20032;-66
2021/11/06 05:56:38;;;;;;;4.20;1.50;;;20.10;46.00;;;;;;4917017;29;20020;-66
2021/11/06 05:59:04;;;;;;;3.92;1.70;;;20.10;46.00;;;;;;4917000;29;20024;-66
2021/11/06 06:01:30;;;;;;;4.43;1.60;;;20.10;45.90;;;;;;4916989;29;20056;-67
2021/11/06 06:03:55;;;;;;;5.20;2.13;;;20.10;45.90;;;;;;4916947;29;20472;-66
2021/11/06 06:06:21;;;;;;;4.57;1.98;;;20.10;45.80;;;;;;4916924;29;20028;-65
2021/11/06 06:08:47;;;;;;;3.45;1.50;;;20.10;45.90;;;;;;4916902;29;20036;-66
2021/11/06 06:11:12;;;;;;;3.63;1.40;;;20.20;45.90;;;;;;4916828;29;20032;-66
2021/11/06 06:13:38;;;;;;;5.05;1.65;;;20.10;45.80;;;;;;4916796;29;20052;-65
2021/11/06 06:16:04;;;;;;;3.38;1.67;;;20.10;45.90;;;;;;4916780;29;20123;-65
2021/11/06 06:18:29;;;;;;;3.60;1.40;;;20.20;45.90;;;;;;4915589;29;20028;-66
2021/11/06 06:20:55;;;;;;;5.13;1.92;;;20.10;45.80;;;;;;4916751;29;20036;-66
2021/11/06 06:23:20;;;;;;;3.40;1.20;;;20.10;45.70;;;;;;4916649;29;20537;-66
2021/11/06 06:25:46;;;;;;;4.35;1.92;;;20.20;45.80;;;;;;4915477;29;20024;-66
2021/11/06 06:28:11;;;;;;;4.10;1.63;;;20.20;45.80;;;;;;4916692;29;20076;-65
2021/11/06 06:30:38;;;;;;;4.57;1.50;;;20.10;45.80;;;;;;4916553;29;20448;-66
2021/11/06 06:33:05;;;;;;;4.65;1.70;;;20.20;45.80;;;;;;4916608;29;20025;-66
2021/11/06 06:35:30;;;;;;;3.90;1.52;;;20.20;45.90;;;;;;4916552;29;20077;-66
2021/11/06 06:37:57;;;;;;;3.97;1.50;;;20.20;45.80;;;;;;4916546;29;20500;-66
2021/11/06 06:40:23;;;;;;;5.13;1.70;;;20.10;45.80;;;;;;4916810;29;20032;-65
2021/11/06 06:42:49;;;;;;;4.15;1.42;;;20.10;45.80;;;;;;4916649;29;20051;-66
2021/11/06 06:45:14;;;;;;;4.40;1.77;;;20.20;45.80;;;;;;4916531;29;20039;-66
2021/11/06 06:47:40;;;;;;;5.43;1.50;;;20.20;45.80;;;;;;4918368;29;20028;-66
2021/11/06 06:50:08;;;;;;;4.68;1.63;;;20.20;45.80;;;;;;4919134;29;20391;-66
2021/11/06 06:52:34;;;;;;;4.63;1.70;;;20.20;45.90;;;;;;4920466;29;20413;-65
2021/11/06 06:54:59;;;;;;;5.57;1.63;;;20.20;45.80;;;;;;4920162;29;20036;-66
2021/11/06 06:57:25;;;;;;;6.40;1.83;;;20.20;45.80;;;;;;4920245;29;20051;-66
2021/11/06 06:59:50;;;;;;;3.63;1.70;;;20.10;45.80;;;;;;4920328;29;20432;-66
2021/11/06 07:02:16;;;;;;;4.45;1.70;;;20.10;45.80;;;;;;4920148;29;20039;-65
2021/11/06 07:04:42;;;;;;;3.83;1.50;;;20.10;45.90;;;;;;4920055;29;20020;-66
2021/11/06 07:07:07;;;;;;;4.47;1.63;;;20.20;45.80;;;;;;4920227;29;20405;-66
2021/11/06 07:09:33;;;;;;;4.53;1.52;;;20.20;45.80;;;;;;4920172;29;20088;-66
2021/11/06 07:11:58;;;;;;;5.40;1.80;;;20.20;45.90;;;;;;4918639;29;20079;-66
2021/11/06 07:14:24;;;;;;;4.80;1.55;;;20.10;45.80;;;;;;4919844;29;20048;-66
2021/11/06 07:16:52;;;;;;;4.47;1.50;;;20.20;45.80;;;;;;4919741;29;20060;-66
2021/11/06 07:19:18;;;;;;;3.83;1.38;;;20.20;45.80;;;;;;4920036;29;20380;-66
2021/11/06 07:21:43;;;;;;;4.40;1.40;;;20.20;45.80;;;;;;4919677;29;20028;-66
2021/11/06 07:24:09;;;;;;;4.15;1.63;;;20.20;45.80;;;;;;4918683;29;20028;-66
2021/11/06 07:26:35;;;;;;;4.55;1.50;;;20.20;45.80;;;;;;4918427;29;20031;-66
2021/11/06 07:29:00;;;;;;;5.50;1.90;;;20.20;45.80;;;;;;4919598;29;20032;-66
2021/11/06 07:31:26;;;;;;;4.45;1.60;;;20.20;45.70;;;;;;4919793;29;20495;-66
2021/11/06 07:33:54;;;;;;;4.82;1.80;;;20.20;45.80;;;;;;4919291;29;20036;-66
2021/11/06 07:36:21;;;;;;;3.78;1.52;;;20.20;45.80;;;;;;4919450;29;20103;-66
2021/11/06 07:38:46;;;;;;;4.40;1.63;;;20.20;45.80;;;;;;4919465;29;20055;-66
2021/11/06 07:41:12;;;;;;;4.88;1.75;;;20.20;45.70;;;;;;4919417;29;20063;-66
2021/11/06 07:43:38;;;;;;;4.05;1.45;;;20.20;45.70;;;;;;4919413;29;20020;-66
2021/11/06 07:46:07;;;;;;;3.92;1.42;;;20.20;45.80;;;;;;4919358;29;20038;-66
2021/11/06 07:48:33;;;;;;;4.45;1.50;;;20.20;45.80;;;;;;4919199;29;20032;-66
2021/11/06 07:50:59;;;;;;;4.38;1.67;;;20.20;45.70;;;;;;4919133;29;20123;-66
2021/11/06 07:53:25;;;;;;;3.63;1.45;;;20.20;45.70;;;;;;4919195;29;20107;-66
2021/11/06 07:55:51;;;;;;;3.67;1.48;;;20.20;45.70;;;;;;4917839;29;20036;-65
2021/11/06 07:58:17;;;;;;;4.10;1.80;;;20.20;45.70;;;;;;4918121;29;20350;-66
2021/11/06 08:00:43;;;;;;;4.03;1.30;;;20.20;45.70;;;;;;4917410;29;20040;-66
2021/11/06 08:03:09;;;;;;;4.28;1.45;;;20.20;45.70;;;;;;4919086;29;20024;-66
2021/11/06 08:05:35;;;;;;;3.83;1.58;;;20.20;45.70;;;;;;4918998;29;20543;-66
2021/11/06 08:08:01;;;;;;;5.53;1.50;;;20.20;45.70;;;;;;4919088;29;20051;-66
2021/11/06 08:10:27;;;;;;;4.60;1.77;;;20.30;45.70;;;;;;4918861;29;20361;-66
2021/11/06 08:12:54;;;;;;;5.65;1.42;;;20.20;45.60;;;;;;4918827;29;20032;-66
2021/11/06 08:15:20;;;;;;;3.38;1.42;;;20.20;45.70;;;;;;4917419;29;20500;-66
2021/11/06 08:17:45;;;;;;;4.28;1.40;;;20.20;45.60;;;;;;4918704;29;20107;-66
2021/11/06 08:20:11;;;;;;;4.10;1.48;;;20.30;45.60;;;;;;4918625;29;20488;-65
2021/11/06 08:22:37;;;;;;;3.88;1.50;;;20.30;45.60;;;;;;4918481;29;20075;-66
2021/11/06 08:25:05;;;;;;;5.32;1.88;;;20.30;45.70;;;;;;4917305;29;20084;-66
2021/11/06 08:27:31;;;;;;;3.90;1.50;;;20.30;45.60;;;;;;4918601;29;20103;-66
2021/11/06 08:29:57;;;;;;;3.90;1.55;;;20.30;45.60;;;;;;4918337;29;20448;-65
2021/11/06 08:32:23;;;;;;;5.00;1.60;;;20.30;45.60;;;;;;4918708;29;20499;-66
2021/11/06 08:34:48;;;;;;;2.90;1.40;;;20.20;45.60;;;;;;4918680;29;20044;-66
2021/11/06 08:37:14;;;;;;;3.90;1.65;;;20.20;45.60;;;;;;4918421;29;20099;-65
2021/11/06 08:39:40;;;;;;;4.07;1.63;;;20.20;45.70;;;;;;4917083;29;20055;-66
2021/11/06 08:42:05;;;;;;;3.90;1.50;;;20.30;45.60;;;;;;4918270;29;20028;-65
2021/11/06 08:44:31;;;;;;;3.75;1.17;;;20.20;45.60;;;;;;4916963;29;20032;-66
2021/11/06 08:46:56;;;;;;;4.55;1.52;;;20.30;45.60;;;;;;4918252;29;20032;-66
2021/11/06 08:49:23;;;;;;;3.47;1.33;;;20.30;45.60;;;;;;4918218;29;20036;-66
2021/11/06 08:51:51;;;;;;;4.93;1.83;;;20.30;45.60;;;;;;4918157;29;20028;-65
2021/11/06 08:54:18;;;;;;;3.90;1.45;;;20.30;45.60;;;;;;4918280;29;20055;-66
2021/11/06 08:56:44;;;;;;;3.03;1.13;;;20.30;45.60;;;;;;4918104;29;20127;-65
2021/11/06 08:59:11;;;;;;;4.75;1.50;;;20.30;45.60;;;;;;4916828;29;20047;-65
2021/11/06 09:01:37;;;;;;;3.42;1.25;;;20.30;45.60;;;;;;4917888;29;20020;-66
2021/11/06 09:04:04;;;;;;;4.07;1.45;;;20.30;45.60;;;;;;4917908;29;20032;-66
2021/11/06 09:06:33;;;;;;;4.05;1.23;;;20.30;45.60;;;;;;4917905;29;20028;-66
2021/11/06 09:09:06;;;;;;;3.80;1.30;;;20.30;45.60;;;;;;4918147;29;20031;-66
2021/11/06 09:11:32;;;;;;;3.15;1.48;;;20.30;45.70;;;;;;4917684;29;20421;-66
2021/11/06 09:13:59;;;;;;;3.22;1.27;;;20.30;45.60;;;;;;4918032;29;20035;-66
2021/11/06 09:16:25;;;;;;;2.78;1.20;;;20.20;45.70;;;;;;4917777;29;20043;-65
2021/11/06 09:18:51;;;;;;;4.75;1.55;;;20.30;45.70;;;;;;4917828;29;20058;-65
2021/11/06 09:21:20;;;;;;;5.22;1.70;;;20.20;45.70;;;;;;4917213;29;20028;-65
2021/11/06 09:23:48;;;;;;;3.47;1.30;;;20.20;45.60;;;;;;4917572;29;20025;-65
2021/11/06 09:26:14;;;;;;;3.85;1.40;;;20.30;45.70;;;;;;4917592;29;20036;-66
2021/11/06 09:28:40;;;;;;;3.20;1.45;;;20.30;45.60;;;;;;4916170;29;20029;-65
2021/11/06 09:31:08;;;;;;;3.92;1.50;;;20.20;45.60;;;;;;4917341;29;20056;-65
2021/11/06 09:33:33;;;;;;;4.03;1.38;;;20.20;45.60;;;;;;4917602;29;20051;-65
2021/11/06 09:35:59;;;;;;;4.70;1.50;;;20.20;45.60;;;;;;4917301;29;20078;-66
2021/11/06 09:38:24;;;;;;;3.03;1.27;;;20.20;45.70;;;;;;4917356;29;20020;-65
2021/11/06 09:40:50;;;;;;;3.65;1.42;;;20.30;45.70;;;;;;4917224;29;20385;-65
2021/11/06 09:43:16;;;;;;;4.60;1.30;;;20.30;45.70;;;;;;4917113;29;20056;-65
2021/11/06 09:45:46;;;;;;;3.63;1.38;;;20.30;45.60;;;;;;4917201;29;20032;-66
2021/11/06 09:48:12;;;;;;;3.60;1.40;;;20.30;45.60;;;;;;4915947;29;20035;-65
2021/11/06 09:50:38;;;;;;;5.00;1.58;;;20.30;45.70;;;;;;4917072;29;20024;-65
2021/11/06 09:53:03;;;;;;;4.93;1.27;;;20.30;45.60;;;;;;4917002;29;20384;-65
2021/11/06 09:55:32;;;;;;;3.70;1.10;;;20.30;45.60;;;;;;4916994;29;20178;-66
2021/11/06 09:57:57;;;;;;;3.78;1.33;;;20.30;45.60;;;;;;4917061;29;20035;-65
2021/11/06 10:00:24;;;;;;;3.45;1.15;;;20.30;45.60;;;;;;4915670;29;20028;-65
2021/11/06 10:02:54;;;;;;;3.85;1.40;;;20.30;45.60;;;;;;4917067;29;20036;-66
2021/11/06 10:05:51;;;;;;;3.92;1.55;;;20.30;45.60;;;;;;4916972;29;20035;-65
2021/11/06 10:08:34;;;;;;;3.53;1.20;;;20.30;45.60;;;;;;4916879;29;20048;-65
2021/11/06 10:11:04;;;;;;;2.67;1.10;;;20.30;45.60;;;;;;4916856;29;20035;-66
2021/11/06 10:13:30;;;;;;;3.63;1.40;;;20.30;45.60;;;;;;4916708;29;20709;-65
2021/11/06 10:16:03;;;;;;;3.85;1.20;;;20.30;45.60;;;;;;4916761;29;20040;-66
2021/11/06 10:18:29;;;;;;;3.05;1.33;;;20.30;45.60;;;;;;4917062;29;20040;-65
2021/11/06 10:21:04;;;;;;;2.97;1.30;;;20.30;45.70;;;;;;4916438;29;20028;-65
2021/11/06 10:23:38;;;;;;;3.35;1.17;;;20.30;45.70;;;;;;4916523;29;20029;-65
2021/11/06 10:26:19;;;;;;;4.63;1.23;;;20.30;45.60;;;;;;4916699;29;20032;-65
2021/11/06 10:28:48;;;;;;;2.90;1.15;;;20.30;45.60;;;;;;4916688;29;20111;-65
2021/11/06 10:31:13;;;;;;;3.00;1.30;;;20.30;45.70;;;;;;4916444;29;20052;-65
2021/11/06 10:33:46;;;;;;;3.20;1.20;;;20.30;45.60;;;;;;4916580;29;20054;-65
2021/11/06 10:36:27;;;;;;;2.33;0.95;;;20.30;45.60;;;;;;4916486;29;20045;-65
2021/11/06 10:39:19;;;;;;;2.50;1.13;;;20.30;45.50;;;;;;4916674;29;20032;-66
2021/11/06 10:41:44;;;;;;;3.33;1.40;;;20.40;45.60;;;;;;4912064;29;20052;-65
2021/11/06 10:44:12;;;;;;;2.92;1.13;;;20.30;45.50;;;;;;4915379;29;20028;-65
2021/11/06 10:46:38;;;;;;;4.30;1.40;;;20.30;45.50;;;;;;4916528;29;20028;-65
2021/11/06 10:49:37;;;;;;;2.90;1.17;;;20.40;45.50;;;;;;4916456;29;20039;-66
2021/11/06 10:52:07;;;;;;;4.43;1.40;;;20.40;45.50;;;;;;4915046;29;20024;-65
2021/11/06 10:54:33;;;;;;;2.92;1.20;;;20.30;45.50;;;;;;4916418;29;20024;-65
2021/11/06 10:57:01;;;;;;;3.67;1.35;;;20.30;45.60;;;;;;4916624;29;20104;-65
2021/11/06 10:59:27;;;;;;;3.53;1.42;;;20.30;45.60;;;;;;4916686;29;20024;-65
2021/11/06 11:01:53;;;;;;;3.42;1.25;;;20.30;45.60;;;;;;4916217;29;20039;-65
2021/11/06 11:04:20;;;;;;;3.00;1.20;;;20.30;45.60;;;;;;4916358;29;20031;-65
2021/11/06 11:06:50;;;;;;;3.15;1.23;;;20.30;45.60;;;;;;4916371;29;20491;-66
2021/11/06 11:09:17;;;;;;;3.85;1.20;;;20.30;45.60;;;;;;4916205;29;20032;-65
2021/11/06 11:11:44;;;;;;;3.42;1.30;;;20.30;45.70;;;;;;4916370;29;20056;-65
2021/11/06 11:14:13;;;;;;;3.70;1.30;;;20.30;45.70;;;;;;4916486;29;20039;-66
2021/11/06 11:16:53;;;;;;;3.35;1.30;;;20.20;45.70;;;;;;4916307;29;20444;-66
2021/11/06 11:19:34;;;;;;;3.35;1.20;;;20.20;45.70;;;;;;4916193;29;20480;-65
2021/11/06 11:22:00;;;;;;;3.97;1.25;;;20.20;45.70;;;;;;4914973;29;20511;-65
2021/11/06 11:24:26;;;;;;;2.88;1.20;;;20.20;45.70;;;;;;4916165;29;20087;-65
2021/11/06 11:26:54;;;;;;;2.95;1.20;;;20.20;45.70;;;;;;4916247;29;20056;-65
2021/11/06 11:29:28;;;;;;;3.85;1.17;;;20.20;45.70;;;;;;4916048;29;20111;-65
2021/11/06 11:31:55;;;;;;;3.55;1.30;;;20.30;45.70;;;;;;4916143;29;20078;-65
2021/11/06 11:34:21;;;;;;;5.05;1.10;;;20.30;45.60;;;;;;4918513;29;20524;-64
2021/11/06 11:36:49;;;;;;;2.85;1.00;;;20.30;45.60;;;;;;4919384;29;20032;-65
2021/11/06 11:39:18;;;;;;;4.18;1.20;;;20.30;45.60;;;;;;4919398;29;20025;-65
2021/11/06 11:42:06;;;;;;;4.28;1.38;;;20.30;45.60;;;;;;4919287;29;20083;-65
2021/11/06 11:44:52;;;;;;;2.90;1.08;;;20.30;45.60;;;;;;4919198;29;20460;-65
2021/11/06 11:47:36;;;;;;;3.75;1.20;;;20.30;45.60;;;;;;4918059;29;20167;-65
2021/11/06 11:50:05;;;;;;;3.78;1.35;;;20.30;45.70;;;;;;4919365;29;20017;-65
2021/11/06 11:52:39;;;;;;;2.50;1.05;;;20.30;45.60;;;;;;4919221;29;20047;-65
2021/11/06 11:55:29;;;;;;;3.25;1.27;;;20.30;45.60;;;;;;4919228;29;20060;-64
2021/11/06 11:58:10;;;;;;;2.50;1.10;;;20.30;45.70;;;;;;4919071;29;20115;-65
2021/11/06 12:00:40;;;;;;;3.03;1.00;;;20.30;45.70;;;;;;4919166;29;20468;-65
2021/11/06 12:03:07;;;;;;;3.03;1.10;;;20.30;45.70;;;;;;4919185;29;20033;-65
2021/11/06 12:05:36;;;;;;;3.20;1.20;;;20.30;45.70;;;;;;4918834;29;20028;-64
2021/11/06 12:08:11;;;;;;;3.00;0.95;;;20.30;45.70;;;;;;4918915;29;20020;-65
2021/11/06 12:10:37;;;;;;;2.95;1.23;;;20.30;45.60;;;;;;4917694;29;20032;-64
2021/11/06 12:13:23;;;;;;;2.42;1.08;;;20.30;45.70;;;;;;4917536;29;20024;-64
2021/11/06 12:16:06;;;;;;;2.83;1.33;;;20.30;45.60;;;;;;4918550;29;20040;-64
2021/11/06 12:18:34;;;;;;;2.22;1.08;;;20.30;45.60;;;;;;4918753;29;20115;-65
2021/11/06 12:21:11;;;;;;;3.42;1.10;;;20.30;45.60;;;;;;4918689;29;20055;-65
2021/11/06 12:23:39;;;;;;;2.20;0.95;;;20.30;45.60;;;;;;4918569;29;20031;-64
2021/11/06 12:26:29;;;;;;;2.40;1.08;;;20.30;45.60;;;;;;4918560;29;20114;-64
2021/11/06 12:29:06;;;;;;;2.58;1.00;;;20.30;45.70;;;;;;4918451;29;20028;-64
2021/11/06 12:31:40;;;;;;;2.35;1.08;;;20.30;45.60;;;;;;4918178;29;20048;-65
2021/11/06 12:34:28;;;;;;;3.80;1.13;;;20.30;45.60;;;;;;4918330;29;20499;-65
2021/11/06 12:36:53;;;;;;;2.50;1.02;;;20.30;45.70;;;;;;4918380;29;20540;-64
2021/11/06 12:39:46;;;;;;;2.20;1.00;;;20.30;45.60;;;;;;4918218;29;20115;-64
2021/11/06 12:42:18;;;;;;;2.47;1.10;;;20.30;45.60;;;;;;4918383;29;20107;-64
2021/11/06 12:44:51;;;;;;;1.92;0.90;;;20.30;45.60;;;;;;4916140;29;20039;-65
2021/11/06 12:47:17;;;;;;;3.55;1.00;;;20.40;45.60;;;;;;4918116;29;20024;-64
2021/11/06 12:49:43;;;;;;;3.47;1.00;;;20.30;45.60;;;;;;4918140;29;20026;-64